createdAt,value
2022-12-29T00:02:35.239Z,97648.63
2022-12-29T00:07:37.194Z,97645.53
2022-12-29T00:12:57.376Z,97640.66
2022-12-29T00:17:59.210Z,97638.72
2022-12-29T00:23:19.447Z,97644.34
2022-12-29T00:28:40.189Z,97645.16
2022-12-29T00:34:00.475Z,97620.09
2022-12-29T00:39:25.923Z,97618.47
2022-12-29T00:44:28.477Z,97620.72
2022-12-29T00:49:33.772Z,97609.38
2022-12-29T00:54:41.015Z,97597.44
2022-12-29T00:59:43.720Z,97585.63
2022-12-29T01:04:45.602Z,97598.28
2022-12-29T01:10:06.023Z,97591.00
2022-12-29T01:15:10.324Z,97581.50
2022-12-29T01:20:13.760Z,97575.22
2022-12-29T01:25:16.379Z,97585.75
2022-12-29T01:30:20.055Z,97577.34
2022-12-29T01:35:22.188Z,97586.56
2022-12-29T01:40:24.021Z,97583.00
2022-12-29T01:45:26.244Z,97578.63
2022-12-29T01:50:38.646Z,97576.84
2022-12-29T01:55:54.525Z,97577.47
2022-12-29T02:00:57.470Z,97573.28
2022-12-29T02:06:05.189Z,97557.75
2022-12-29T02:11:08.133Z,97549.19
2022-12-29T02:16:51.330Z,97542.84
2022-12-29T02:22:16.285Z,97545.28
2022-12-29T02:27:42.583Z,97539.75
2022-12-29T02:32:53.891Z,97534.06
2022-12-29T02:37:56.347Z,97513.66
2022-12-29T02:43:15.185Z,97516.53
2022-12-29T02:48:53.878Z,97517.81
2022-12-29T02:54:15.795Z,97511.31
2022-12-29T02:59:18.338Z,97505.44
2022-12-29T03:04:40.782Z,97507.16
2022-12-29T03:10:15.526Z,97505.94
2022-12-29T03:16:02.742Z,97510.06
2022-12-29T03:21:44.197Z,97523.13
2022-12-29T03:26:50.175Z,97518.06
2022-12-29T03:31:56.619Z,97509.22
2022-12-29T03:37:04.004Z,97505.28
2022-12-29T03:42:11.657Z,97502.19
2022-12-29T03:47:15.198Z,97491.28
2022-12-29T03:52:18.782Z,97488.31
2022-12-29T03:57:22.298Z,97476.00
2022-12-29T04:02:34.322Z,97475.63
2022-12-29T04:07:38.125Z,97486.00
2022-12-29T04:12:42.714Z,97485.47
2022-12-29T04:17:45.349Z,97472.34
2022-12-29T04:22:48.149Z,97456.63
2022-12-29T04:27:50.196Z,97455.66
2022-12-29T04:33:11.066Z,97452.88
2022-12-29T04:38:16.327Z,97455.28
2022-12-29T04:43:25.809Z,97456.28
2022-12-29T04:48:46.568Z,97455.28
2022-12-29T04:54:06.960Z,97454.13
2022-12-29T04:59:09.549Z,97466.72
2022-12-29T05:04:11.409Z,97475.50
2022-12-29T05:09:13.760Z,97477.81
2022-12-29T05:14:16.383Z,97487.88
2022-12-29T05:19:21.124Z,97494.06
2022-12-29T05:24:23.065Z,97489.84
2022-12-29T05:29:27.528Z,97495.84
2022-12-29T05:34:29.530Z,97503.44
2022-12-29T05:39:31.974Z,97497.28
2022-12-29T05:44:36.968Z,97511.06
2022-12-29T05:49:44.483Z,97523.84
2022-12-29T05:55:04.661Z,97504.72
2022-12-29T06:00:09.017Z,97506.34
2022-12-29T06:05:17.122Z,97512.31
2022-12-29T06:10:19.504Z,97523.50
2022-12-29T06:15:29.228Z,97523.50
2022-12-29T06:20:31.177Z,97523.31
2022-12-29T06:25:34.589Z,97527.53
2022-12-29T06:30:37.645Z,97526.38
2022-12-29T06:35:39.512Z,97514.38
2022-12-29T06:40:43.462Z,97504.38
2022-12-29T06:46:00.610Z,97508.94
2022-12-29T06:51:02.411Z,97496.31
2022-12-29T06:56:04.454Z,97502.63
2022-12-29T07:01:06.400Z,97512.56
2022-12-29T07:06:08.333Z,97509.16
2022-12-29T07:11:10.608Z,97506.75
2022-12-29T07:16:12.437Z,97509.69
2022-12-29T07:21:14.290Z,97514.88
2022-12-29T07:26:19.073Z,97519.09
2022-12-29T07:31:23.521Z,97527.47
2022-12-29T07:36:30.757Z,97528.38
2022-12-29T07:41:36.007Z,97498.56
2022-12-29T07:46:56.636Z,97494.00
2022-12-29T07:52:00.007Z,97509.56
2022-12-29T07:57:01.904Z,97503.38
2022-12-29T08:02:04.029Z,97503.38
2022-12-29T08:07:06.199Z,97514.03
2022-12-29T08:12:11.036Z,97517.25
2022-12-29T08:17:12.793Z,97528.25
2022-12-29T08:22:17.590Z,97525.13
2022-12-29T08:27:20.992Z,97532.34
2022-12-29T08:32:23.304Z,97531.00
2022-12-29T08:37:30.908Z,97530.44
2022-12-29T08:42:33.939Z,97536.88
2022-12-29T08:47:35.718Z,97528.75
2022-12-29T08:52:37.506Z,97533.41
2022-12-29T08:57:39.287Z,97533.84
2022-12-29T09:02:48.470Z,97528.47
2022-12-29T09:07:50.544Z,97516.75
2022-12-29T09:12:52.361Z,97524.97
2022-12-29T09:17:56.349Z,97513.59
2022-12-29T09:22:58.201Z,97513.59
2022-12-29T09:28:00.046Z,97507.44
2022-12-29T09:33:01.962Z,97518.97
2022-12-29T09:38:03.992Z,97518.00
2022-12-29T09:43:19.286Z,97516.81
2022-12-29T09:48:30.212Z,97511.25
2022-12-29T09:53:43.068Z,97515.66
2022-12-29T09:59:04.028Z,97513.69
2022-12-29T10:04:08.619Z,97520.66
2022-12-29T10:09:31.637Z,97514.66
2022-12-29T10:14:55.283Z,97527.91
2022-12-29T10:20:12.326Z,97511.84
2022-12-29T10:25:20.820Z,97519.16
2022-12-29T10:30:25.664Z,97525.59
2022-12-29T10:35:36.935Z,97522.00
2022-12-29T10:41:09.961Z,97516.44
2022-12-29T10:46:16.469Z,97499.16
2022-12-29T10:51:31.356Z,97494.63
2022-12-29T10:56:45.508Z,97477.31
2022-12-29T11:02:10.159Z,97480.78
2022-12-29T11:07:16.294Z,97481.63
2022-12-29T11:12:32.272Z,97478.72
2022-12-29T11:17:54.929Z,97474.63
2022-12-29T11:22:57.374Z,97454.88
2022-12-29T11:28:21.610Z,97454.38
2022-12-29T11:33:23.462Z,97455.22
2022-12-29T11:38:36.775Z,97456.59
2022-12-29T11:43:43.768Z,97455.00
2022-12-29T11:48:48.057Z,97458.00
2022-12-29T11:53:54.392Z,97465.78
2022-12-29T11:58:56.230Z,97452.59
2022-12-29T12:04:30.009Z,97461.03
2022-12-29T12:09:45.641Z,97456.47
2022-12-29T12:14:57.713Z,97449.66
2022-12-29T12:20:29.488Z,97448.66
2022-12-29T12:25:43.857Z,97445.88
2022-12-29T12:30:50.387Z,97447.66
2022-12-29T12:36:22.580Z,97447.84
2022-12-29T12:41:40.508Z,97432.44
2022-12-29T12:47:03.032Z,97435.66
2022-12-29T12:52:32.700Z,97435.28
2022-12-29T12:57:46.510Z,97447.28
2022-12-29T13:02:59.184Z,97432.91
2022-12-29T13:08:33.360Z,97432.13
2022-12-29T13:13:47.890Z,97427.16
2022-12-29T13:19:00.676Z,97424.19
2022-12-29T13:24:47.446Z,97432.22
2022-12-29T13:30:05.349Z,97433.81
2022-12-29T13:35:30.008Z,97438.41
2022-12-29T13:40:39.689Z,97438.19
2022-12-29T13:45:43.071Z,97443.34
2022-12-29T13:50:51.805Z,97450.75
2022-12-29T13:56:12.181Z,97452.13
2022-12-29T14:01:20.207Z,97451.72
2022-12-29T14:06:33.949Z,97452.47
2022-12-29T14:11:38.824Z,97453.25
2022-12-29T14:16:43.544Z,97449.63
2022-12-29T14:21:57.612Z,97462.19
2022-12-29T14:26:59.900Z,97463.56
2022-12-29T14:32:01.831Z,97470.75
2022-12-29T14:37:04.814Z,97475.16
2022-12-29T14:42:13.157Z,97468.34
2022-12-29T14:47:35.258Z,97471.50
2022-12-29T14:53:03.092Z,97482.72
2022-12-29T14:58:14.086Z,97482.91
2022-12-29T15:03:24.803Z,97489.91
2022-12-29T15:08:32.147Z,97476.47
2022-12-29T15:13:39.771Z,97499.25
2022-12-29T15:18:43.718Z,97489.84
2022-12-29T15:23:46.793Z,97504.84
2022-12-29T15:28:49.941Z,97512.34
2022-12-29T15:33:55.666Z,97515.72
2022-12-29T15:38:57.641Z,97526.84
2022-12-29T15:44:02.219Z,97527.41
2022-12-29T15:49:09.554Z,97538.97
2022-12-29T15:54:21.829Z,97548.38
2022-12-29T15:59:28.359Z,97554.56
2022-12-29T16:04:38.994Z,97573.94
2022-12-29T16:09:56.170Z,97573.50
2022-12-29T16:14:59.471Z,97573.50
2022-12-29T16:20:04.625Z,97572.63
2022-12-29T16:25:26.934Z,97581.16
2022-12-29T16:30:34.162Z,97584.13
2022-12-29T16:35:54.457Z,97585.09
2022-12-29T16:41:03.843Z,97607.22
2022-12-29T16:46:29.967Z,97598.81
2022-12-29T16:51:34.701Z,97610.00
2022-12-29T16:56:38.579Z,97607.78
2022-12-29T17:01:40.753Z,97607.97
2022-12-29T17:06:42.789Z,97613.53
2022-12-29T17:12:01.598Z,97610.66
2022-12-29T17:17:15.793Z,97621.41
2022-12-29T17:22:21.683Z,97613.34
2022-12-29T17:28:01.940Z,97624.09
2022-12-29T17:33:15.183Z,97629.03
2022-12-29T17:38:28.548Z,97632.78
2022-12-29T17:43:36.680Z,97627.16
2022-12-29T17:48:39.122Z,97628.31
2022-12-29T17:53:41.036Z,97631.47
2022-12-29T17:58:43.779Z,97639.41
2022-12-29T18:03:45.617Z,97631.19
2022-12-29T18:08:47.581Z,97629.94
2022-12-29T18:13:49.531Z,97646.66
2022-12-29T18:18:51.549Z,97642.00
2022-12-29T18:23:53.385Z,97649.34
2022-12-29T18:28:56.673Z,97644.31
2022-12-29T18:34:00.883Z,97649.53
2022-12-29T18:39:03.101Z,97648.88
2022-12-29T18:44:05.032Z,97653.91
2022-12-29T18:49:06.920Z,97653.72
2022-12-29T18:54:29.504Z,97639.31
2022-12-29T18:59:31.389Z,97640.66
2022-12-29T19:04:33.156Z,97644.69
2022-12-29T19:09:35.413Z,97641.09
2022-12-29T19:14:37.325Z,97644.31
2022-12-29T19:19:43.120Z,97631.19
2022-12-29T19:24:44.906Z,97630.38
2022-12-29T19:29:46.990Z,97643.69
2022-12-29T19:34:49.004Z,97633.31
2022-12-29T19:39:51.041Z,97640.47
2022-12-29T19:44:52.791Z,97640.66
2022-12-29T19:49:54.997Z,97640.84
2022-12-29T19:54:56.730Z,97633.06
2022-12-29T19:59:58.694Z,97633.69
2022-12-29T20:05:01.000Z,97614.19
2022-12-29T20:10:04.442Z,97607.81
2022-12-29T20:15:08.622Z,97615.44
2022-12-29T20:20:10.998Z,97632.16
2022-12-29T20:25:43.771Z,97628.31
2022-12-29T20:30:34.686Z,97630.00
2022-12-29T20:35:37.028Z,97627.13
2022-12-29T20:40:45.970Z,97624.28
2022-12-29T20:45:48.922Z,97625.97
2022-12-29T20:50:50.999Z,97629.28
2022-12-29T20:55:54.490Z,97640.19
2022-12-29T21:01:00.141Z,97651.88
2022-12-29T21:06:02.159Z,97655.13
2022-12-29T21:11:05.201Z,97661.47
2022-12-29T21:16:08.830Z,97667.19
2022-12-29T21:21:23.003Z,97666.72
2022-12-29T21:26:24.840Z,97682.00
2022-12-29T21:31:29.401Z,97692.25
2022-12-29T21:36:31.624Z,97697.75
2022-12-29T21:41:33.726Z,97686.13
2022-12-29T21:46:39.007Z,97703.97
2022-12-29T21:51:57.589Z,97701.91
2022-12-29T21:56:59.482Z,97712.59
2022-12-29T22:02:22.110Z,97711.16
2022-12-29T22:07:42.779Z,97716.69
2022-12-29T22:13:03.356Z,97728.81
2022-12-29T22:18:06.484Z,97727.53
2022-12-29T22:23:08.554Z,97737.44
2022-12-29T22:28:10.773Z,97747.00
2022-12-29T22:33:12.503Z,97751.38
2022-12-29T22:38:15.642Z,97729.84
2022-12-29T22:43:17.703Z,97750.56
2022-12-29T22:48:19.495Z,97745.53
2022-12-29T22:53:21.292Z,97744.56
2022-12-29T22:58:23.077Z,97737.78
2022-12-29T23:03:24.930Z,97747.97
2022-12-29T23:08:28.160Z,97747.97
2022-12-29T23:13:29.952Z,97765.28
2022-12-29T23:18:31.796Z,97759.13
2022-12-29T23:23:52.568Z,97752.16
2022-12-29T23:28:59.882Z,97749.56
2022-12-29T23:34:02.951Z,97750.06
2022-12-29T23:39:05.757Z,97747.78
2022-12-29T23:44:07.670Z,97753.16
2022-12-29T23:49:10.076Z,97768.84
2022-12-29T23:54:11.929Z,97769.03
2022-12-29T23:59:13.671Z,97777.59
